createdAt,value
2018-03-19T00:01:07.009Z,-3.93
2018-03-19T00:03:38.908Z,-3.95
2018-03-19T00:06:11.449Z,-3.88
2018-03-19T00:08:40.924Z,-3.98
2018-03-19T00:11:11.579Z,-3.98
2018-03-19T00:13:42.089Z,-3.96
2018-03-19T00:16:13.679Z,-4.02
2018-03-19T00:18:43.705Z,-4.04
2018-03-19T00:21:15.578Z,-4.10
2018-03-19T00:23:46.264Z,-4.05
2018-03-19T00:26:16.788Z,-4.13
2018-03-19T00:28:48.253Z,-4.11
2018-03-19T00:31:19.031Z,-4.04
2018-03-19T00:33:52.035Z,-4.08
2018-03-19T00:36:23.867Z,-4.12
2018-03-19T00:38:53.212Z,-4.09
2018-03-19T00:41:24.466Z,-4.09
2018-03-19T00:43:54.929Z,-4.09
2018-03-19T00:46:24.996Z,-4.11
2018-03-19T00:48:55.813Z,-4.09
2018-03-19T00:51:27.231Z,-4.10
2018-03-19T00:53:58.440Z,-4.11
2018-03-19T00:56:29.221Z,-4.12
2018-03-19T00:59:01.324Z,-4.11
2018-03-19T01:01:30.973Z,-4.13
2018-03-19T01:04:02.246Z,-4.16
2018-03-19T01:06:33.331Z,-4.16
2018-03-19T01:09:03.612Z,-4.14
2018-03-19T01:11:34.652Z,-4.15
2018-03-19T01:14:06.059Z,-4.15
2018-03-19T01:16:37.763Z,-4.16
2018-03-19T01:19:07.989Z,-4.18
2018-03-19T01:21:39.167Z,-4.19
2018-03-19T01:24:09.455Z,-4.21
2018-03-19T01:26:40.096Z,-4.22
2018-03-19T01:29:10.878Z,-4.29
2018-03-19T01:31:41.491Z,-4.28
2018-03-19T01:34:12.311Z,-4.28
2018-03-19T01:36:43.244Z,-4.29
2018-03-19T01:39:15.668Z,-4.31
2018-03-19T01:41:46.641Z,-4.36
2018-03-19T01:44:16.180Z,-4.37
2018-03-19T01:46:47.158Z,-4.37
2018-03-19T01:49:17.025Z,-4.39
2018-03-19T01:51:47.739Z,-4.39
2018-03-19T01:54:18.523Z,-4.41
2018-03-19T01:56:49.237Z,-4.42
2018-03-19T01:59:19.964Z,-4.45
2018-03-19T02:01:50.575Z,-4.50
2018-03-19T02:04:21.311Z,-4.53
2018-03-19T02:06:52.042Z,-4.54
2018-03-19T02:09:23.384Z,-4.55
2018-03-19T02:11:54.579Z,-4.58
2018-03-19T02:14:26.086Z,-4.59
2018-03-19T02:16:56.977Z,-4.59
2018-03-19T02:19:27.947Z,-4.66
2018-03-19T02:21:59.104Z,-4.61
2018-03-19T02:24:30.208Z,-4.63
2018-03-19T02:27:01.370Z,-4.63
2018-03-19T02:29:31.464Z,-4.70
2018-03-19T02:32:03.236Z,-4.66
2018-03-19T02:34:34.419Z,-4.68
2018-03-19T02:37:03.864Z,-4.71
2018-03-19T02:39:35.509Z,-4.74
2018-03-19T02:42:05.771Z,-4.75
2018-03-19T02:44:36.646Z,-4.75
2018-03-19T02:47:08.263Z,-4.77
2018-03-19T02:49:38.946Z,-4.79
2018-03-19T02:52:10.471Z,-4.80
2018-03-19T02:54:41.040Z,-4.85
2018-03-19T02:57:10.943Z,-4.83
2018-03-19T02:59:41.954Z,-4.86
2018-03-19T03:02:12.882Z,-4.87
2018-03-19T03:04:43.696Z,-4.89
2018-03-19T03:07:14.693Z,-4.91
2018-03-19T03:09:45.443Z,-4.92
2018-03-19T03:12:15.830Z,-4.95
2018-03-19T03:14:47.314Z,-4.97
2018-03-19T03:17:17.967Z,-4.96
2018-03-19T03:19:48.938Z,-5.00
2018-03-19T03:22:20.097Z,-4.99
2018-03-19T03:24:52.025Z,-5.00
2018-03-19T03:27:23.013Z,-5.02
2018-03-19T03:29:53.769Z,-5.07
2018-03-19T03:32:25.720Z,-5.07
2018-03-19T03:34:56.512Z,-5.10
2018-03-19T03:37:26.224Z,-5.12
2018-03-19T03:39:57.542Z,-5.16
2018-03-19T03:42:28.281Z,-5.16
2018-03-19T03:44:59.310Z,-5.17
2018-03-19T03:47:30.535Z,-5.19
2018-03-19T03:50:01.220Z,-5.27
2018-03-19T03:52:32.068Z,-5.27
2018-03-19T03:55:02.752Z,-5.27
2018-03-19T03:57:33.600Z,-5.26
2018-03-19T04:00:04.179Z,-5.35
2018-03-19T04:02:36.472Z,-5.33
2018-03-19T04:05:06.797Z,-5.31
2018-03-19T04:07:36.876Z,-5.37
2018-03-19T04:10:07.777Z,-5.36
2018-03-19T04:12:39.668Z,-5.44
2018-03-19T04:15:10.152Z,-5.42
2018-03-19T04:17:41.094Z,-5.48
2018-03-19T04:20:11.751Z,-5.43
2018-03-19T04:22:42.754Z,-5.46
2018-03-19T04:25:14.314Z,-5.50
2018-03-19T04:27:43.658Z,-5.44
2018-03-19T04:30:14.889Z,-5.48
2018-03-19T04:32:45.554Z,-5.46
2018-03-19T04:35:16.335Z,-5.46
2018-03-19T04:37:47.174Z,-5.46
2018-03-19T04:40:17.651Z,-5.47
2018-03-19T04:42:49.356Z,-5.49
2018-03-19T04:45:18.612Z,-5.48
2018-03-19T04:47:49.243Z,-5.49
2018-03-19T04:50:21.456Z,-5.50
2018-03-19T04:52:52.559Z,-5.50
2018-03-19T04:55:23.346Z,-5.51
2018-03-19T04:57:54.352Z,-5.50
2018-03-19T05:00:25.292Z,-5.50
2018-03-19T05:02:56.687Z,-5.50
2018-03-19T05:05:26.508Z,-5.51
2018-03-19T05:07:57.112Z,-5.54
2018-03-19T05:10:29.217Z,-5.53
2018-03-19T05:12:58.865Z,-5.53
2018-03-19T05:15:29.687Z,-5.55
2018-03-19T05:17:59.336Z,-5.55
2018-03-19T05:20:33.206Z,-5.55
2018-03-19T05:23:02.965Z,-5.56
2018-03-19T05:25:32.947Z,-5.56
2018-03-19T05:28:04.035Z,-5.54
2018-03-19T05:30:34.785Z,-5.53
2018-03-19T05:33:06.711Z,-5.52
2018-03-19T05:35:38.134Z,-5.49
2018-03-19T05:38:08.711Z,-5.45
2018-03-19T05:40:41.678Z,-5.41
2018-03-19T05:43:10.912Z,-5.36
2018-03-19T05:45:41.900Z,-5.33
2018-03-19T05:48:11.495Z,-5.28
2018-03-19T05:50:45.759Z,-5.23
2018-03-19T05:53:15.224Z,-5.18
2018-03-19T05:55:44.608Z,-5.12
2018-03-19T05:58:16.127Z,-5.09
2018-03-19T06:00:47.405Z,-5.06
2018-03-19T06:03:17.164Z,-5.04
2018-03-19T06:05:47.576Z,-4.97
2018-03-19T06:08:18.522Z,-4.89
2018-03-19T06:10:49.007Z,-4.82
2018-03-19T06:13:19.670Z,-4.91
2018-03-19T06:15:50.824Z,-4.72
2018-03-19T06:18:27.265Z,-4.69
2018-03-19T06:20:57.192Z,-4.61
2018-03-19T06:23:26.810Z,-4.56
2018-03-19T06:25:56.053Z,-4.56
2018-03-19T06:28:26.771Z,-4.54
2018-03-19T06:30:57.862Z,-4.40
2018-03-19T06:33:28.748Z,-4.34
2018-03-19T06:35:59.676Z,-4.26
2018-03-19T06:38:29.920Z,-4.18
2018-03-19T06:40:59.921Z,-4.14
2018-03-19T06:43:31.312Z,-4.06
2018-03-19T06:46:01.330Z,-4.08
2018-03-19T06:48:32.160Z,-4.00
2018-03-19T06:51:02.979Z,-3.87
2018-03-19T06:53:34.808Z,-3.74
2018-03-19T06:56:05.285Z,-3.67
2018-03-19T06:58:36.547Z,-3.56
2018-03-19T07:01:06.762Z,-3.45
2018-03-19T07:03:37.301Z,-3.42
2018-03-19T07:06:08.269Z,-3.33
2018-03-19T07:08:39.115Z,-3.18
2018-03-19T07:11:10.265Z,-3.18
2018-03-19T07:13:41.516Z,-3.14
2018-03-19T07:16:11.436Z,-3.16
2018-03-19T07:18:42.171Z,-3.07
2018-03-19T07:21:12.828Z,-3.04
2018-03-19T07:23:43.878Z,-2.96
2018-03-19T07:26:15.612Z,-2.81
2018-03-19T07:28:46.662Z,-2.83
2018-03-19T07:31:17.339Z,-2.76
2018-03-19T07:33:48.398Z,-2.68
2018-03-19T07:36:20.147Z,-2.59
2018-03-19T07:38:49.503Z,-2.49
2018-03-19T07:41:20.353Z,-2.35
2018-03-19T07:43:51.397Z,-2.33
2018-03-19T07:46:21.273Z,-2.20
2018-03-19T07:48:52.437Z,-2.01
2018-03-19T07:51:23.039Z,-1.89
2018-03-19T07:53:53.941Z,-1.81
2018-03-19T07:56:26.144Z,-1.76
2018-03-19T07:58:57.046Z,-1.63
2018-03-19T08:01:27.808Z,-1.43
2018-03-19T08:03:57.650Z,-1.39
2018-03-19T08:06:30.857Z,-1.27
2018-03-19T08:09:00.972Z,-1.08
2018-03-19T08:11:31.669Z,-0.97
2018-03-19T08:14:01.357Z,-0.78
2018-03-19T08:16:32.426Z,-0.74
2018-03-19T08:19:03.104Z,-0.70
2018-03-19T08:21:33.940Z,-0.58
2018-03-19T08:24:05.146Z,-0.52
2018-03-19T08:26:37.336Z,-0.49
2018-03-19T08:29:07.143Z,-0.39
2018-03-19T08:31:39.124Z,-0.34
2018-03-19T08:34:08.551Z,-0.22
2018-03-19T08:36:39.328Z,-0.02
2018-03-19T08:39:09.149Z,-0.08
2018-03-19T08:41:40.044Z,-0.02
2018-03-19T08:44:11.138Z,-0.02
2018-03-19T08:46:44.441Z,-0.11
2018-03-19T08:49:13.762Z,0.11
2018-03-19T08:51:44.539Z,0.05
2018-03-19T08:54:17.070Z,0.06
2018-03-19T08:56:47.531Z,0.06
2018-03-19T08:59:18.295Z,0.19
2018-03-19T09:01:48.311Z,0.19
2018-03-19T09:04:19.096Z,0.22
2018-03-19T09:06:51.762Z,0.13
2018-03-19T09:09:21.551Z,0.26
2018-03-19T09:11:52.194Z,0.41
2018-03-19T09:14:23.696Z,0.38
2018-03-19T09:16:54.584Z,0.66
2018-03-19T09:19:25.378Z,0.82
2018-03-19T09:21:56.574Z,0.87
2018-03-19T09:24:26.914Z,0.59
2018-03-19T09:26:57.705Z,0.85
2018-03-19T09:29:28.387Z,0.89
2018-03-19T09:31:58.796Z,1.02
2018-03-19T09:34:29.552Z,1.14
2018-03-19T09:37:00.338Z,1.19
2018-03-19T09:39:30.998Z,1.11
2018-03-19T09:42:01.855Z,0.93
2018-03-19T09:44:32.968Z,0.97
2018-03-19T09:47:04.186Z,1.07
2018-03-19T09:49:35.075Z,1.28
2018-03-19T09:52:06.304Z,1.52
2018-03-19T09:54:37.889Z,1.54
2018-03-19T09:57:08.660Z,1.64
2018-03-19T09:59:39.347Z,1.65
2018-03-19T10:02:09.896Z,1.71
2018-03-19T10:04:41.654Z,1.88
2018-03-19T10:07:15.104Z,1.90
2018-03-19T10:09:46.117Z,1.79
2018-03-19T10:12:15.542Z,1.77
2018-03-19T10:14:44.749Z,1.64
2018-03-19T10:17:15.501Z,1.59
2018-03-19T10:19:46.800Z,1.58
2018-03-19T10:22:17.508Z,1.66
2018-03-19T10:24:47.948Z,1.80
2018-03-19T10:27:18.389Z,1.83
2018-03-19T10:29:49.264Z,1.95
2018-03-19T10:32:20.899Z,2.12
2018-03-19T10:34:51.410Z,2.22
2018-03-19T10:37:23.413Z,2.51
2018-03-19T10:39:54.063Z,2.73
2018-03-19T10:42:25.043Z,2.82
2018-03-19T10:44:55.574Z,2.87
2018-03-19T10:47:26.977Z,2.92
2018-03-19T10:49:57.620Z,2.99
2018-03-19T10:52:28.488Z,2.88
2018-03-19T10:54:58.913Z,2.97
2018-03-19T10:57:28.960Z,3.06
2018-03-19T11:00:00.351Z,3.33
2018-03-19T11:02:32.792Z,3.59
2018-03-19T11:05:07.849Z,3.44
2018-03-19T11:10:47.884Z,3.31
2018-03-19T11:13:17.136Z,3.18
2018-03-19T11:15:46.330Z,3.36
2018-03-19T11:18:15.537Z,3.19
2018-03-19T11:20:44.822Z,3.11
2018-03-19T11:23:13.712Z,2.85
2018-03-19T11:25:42.848Z,2.83
2018-03-19T11:28:11.923Z,2.81
2018-03-19T11:30:40.858Z,2.82
2018-03-19T11:33:09.927Z,2.50
2018-03-19T11:35:38.952Z,2.52
2018-03-19T11:38:07.945Z,2.49
2018-03-19T11:40:37.042Z,2.48
2018-03-19T11:43:06.331Z,2.36
2018-03-19T11:45:35.678Z,2.19
2018-03-19T11:48:05.297Z,1.97
2018-03-19T11:50:34.391Z,2.03
2018-03-19T11:53:03.548Z,2.08
2018-03-19T11:55:32.567Z,2.05
2018-03-19T11:58:01.838Z,2.27
2018-03-19T12:00:31.280Z,2.18
2018-03-19T12:03:01.532Z,1.98
2018-03-19T12:05:31.137Z,2.07
2018-03-19T12:08:00.404Z,2.14
2018-03-19T12:10:29.807Z,1.71
2018-03-19T12:12:59.083Z,1.94
2018-03-19T12:15:28.409Z,1.91
2018-03-19T12:17:57.687Z,1.92
2018-03-19T12:20:26.977Z,1.93
2018-03-19T12:22:57.709Z,1.79
2018-03-19T12:25:28.336Z,1.64
2018-03-19T12:27:59.505Z,1.47
2018-03-19T12:30:30.220Z,1.31
2018-03-19T12:33:01.029Z,1.54
2018-03-19T12:35:31.815Z,1.61
2018-03-19T12:38:03.921Z,1.45
2018-03-19T12:40:34.355Z,1.53
2018-03-19T12:43:04.900Z,1.59
2018-03-19T12:45:35.593Z,1.44
2018-03-19T12:48:05.835Z,1.69
2018-03-19T12:50:36.765Z,1.67
2018-03-19T12:53:07.826Z,1.70
2018-03-19T12:55:38.767Z,1.61
2018-03-19T12:58:09.800Z,1.50
2018-03-19T13:00:40.807Z,1.37
2018-03-19T13:03:10.794Z,1.59
2018-03-19T13:05:42.260Z,1.66
2018-03-19T13:08:13.747Z,1.71
2018-03-19T13:10:44.700Z,1.53
2018-03-19T13:13:15.741Z,1.63
2018-03-19T13:15:46.704Z,1.56
2018-03-19T13:18:17.712Z,1.44
2018-03-19T13:20:48.673Z,1.50
2018-03-19T13:23:20.923Z,1.56
2018-03-19T13:25:50.613Z,1.52
2018-03-19T13:28:21.340Z,1.50
2018-03-19T13:42:55.457Z,1.89
2018-03-19T13:45:24.686Z,1.85
2018-03-19T13:47:53.887Z,1.76
2018-03-19T13:50:23.206Z,1.72
2018-03-19T13:52:52.472Z,1.71
2018-03-19T13:55:22.672Z,1.64
2018-03-19T13:57:51.961Z,1.55
2018-03-19T14:00:21.194Z,1.50
2018-03-19T14:02:51.531Z,1.47
2018-03-19T14:05:20.806Z,1.60
2018-03-19T14:07:50.075Z,1.58
2018-03-19T14:10:19.344Z,1.66
2018-03-19T14:12:48.580Z,1.59
2018-03-19T14:15:17.814Z,1.46
2018-03-19T14:17:47.087Z,1.55
2018-03-19T14:20:16.281Z,1.61
2018-03-19T14:22:45.187Z,1.58
2018-03-19T14:25:14.535Z,1.55
2018-03-19T14:27:43.760Z,1.61
2018-03-19T14:30:12.874Z,1.53
2018-03-19T14:32:42.209Z,1.64
2018-03-19T14:35:11.431Z,1.69
2018-03-19T14:37:40.661Z,1.74
2018-03-19T14:40:10.860Z,1.59
2018-03-19T14:42:40.999Z,1.58
2018-03-19T14:45:10.804Z,1.66
2018-03-19T14:47:40.062Z,2.28
2018-03-19T14:50:09.301Z,3.49
2018-03-19T14:52:38.752Z,3.97
2018-03-19T14:55:08.215Z,4.40
2018-03-19T14:57:37.449Z,3.66
2018-03-19T15:00:07.540Z,3.30
2018-03-19T15:02:36.745Z,2.93
2018-03-19T15:05:11.263Z,2.73
2018-03-19T15:07:40.480Z,2.59
2018-03-19T15:10:09.844Z,2.18
2018-03-19T15:12:39.047Z,2.00
2018-03-19T15:15:08.243Z,2.09
2018-03-19T15:17:37.510Z,1.98
2018-03-19T15:20:06.745Z,2.08
2018-03-19T15:22:35.969Z,2.04
2018-03-19T15:25:04.720Z,1.84
2018-03-19T15:27:34.464Z,1.49
2018-03-19T15:30:03.700Z,1.51
2018-03-19T15:32:32.989Z,1.60
2018-03-19T15:35:02.550Z,1.60
2018-03-19T15:37:32.532Z,1.62
2018-03-19T15:40:01.753Z,1.59
2018-03-19T15:42:30.984Z,1.52
2018-03-19T15:45:00.244Z,1.51
2018-03-19T15:47:29.529Z,1.46
2018-03-19T15:49:58.761Z,1.43
2018-03-19T15:52:28.146Z,1.28
2018-03-19T15:54:57.353Z,1.43
2018-03-19T15:57:26.871Z,1.23
2018-03-19T15:59:56.164Z,1.32
2018-03-19T16:02:25.372Z,1.27
2018-03-19T16:04:54.599Z,1.26
2018-03-19T16:07:23.883Z,1.28
2018-03-19T16:09:53.832Z,1.34
2018-03-19T16:12:23.182Z,1.27
2018-03-19T16:14:52.549Z,1.23
2018-03-19T16:17:21.762Z,1.19
2018-03-19T16:19:51.024Z,1.22
2018-03-19T16:22:20.304Z,1.16
2018-03-19T16:24:49.521Z,1.17
2018-03-19T16:27:18.780Z,1.11
2018-03-19T16:29:48.257Z,1.13
2018-03-19T16:32:17.494Z,1.19
2018-03-19T16:34:46.713Z,1.25
2018-03-19T16:37:16.016Z,1.25
2018-03-19T16:39:46.209Z,1.24
2018-03-19T16:42:15.511Z,1.31
2018-03-19T16:44:45.757Z,1.30
2018-03-19T16:47:15.803Z,1.31
2018-03-19T16:49:45.852Z,1.33
2018-03-19T16:52:15.057Z,1.34
2018-03-19T16:54:44.163Z,1.31
2018-03-19T16:57:13.452Z,1.29
2018-03-19T16:59:42.779Z,1.31
2018-03-19T17:02:12.014Z,1.34
2018-03-19T17:04:42.161Z,1.26
2018-03-19T17:07:11.436Z,1.22
2018-03-19T17:09:40.796Z,1.21
2018-03-19T17:12:10.245Z,1.30
2018-03-19T17:14:39.964Z,1.29
2018-03-19T17:17:09.227Z,1.30
2018-03-19T17:19:38.847Z,1.28
2018-03-19T17:22:08.116Z,1.29
2018-03-19T17:24:37.320Z,1.32
2018-03-19T17:27:06.708Z,1.33
2018-03-19T17:29:35.965Z,1.35
2018-03-19T17:32:05.180Z,1.35
2018-03-19T17:34:34.456Z,1.36
2018-03-19T17:37:03.736Z,1.35
2018-03-19T17:39:33.630Z,1.34
2018-03-19T17:42:02.946Z,1.36
2018-03-19T17:44:32.160Z,1.36
2018-03-19T17:47:01.364Z,1.35
2018-03-19T17:49:31.348Z,1.34
2018-03-19T17:52:00.574Z,1.33
2018-03-19T17:54:29.840Z,1.33
2018-03-19T17:56:59.122Z,1.34
2018-03-19T17:59:28.103Z,1.34
2018-03-19T18:01:58.089Z,1.32
2018-03-19T18:04:27.344Z,1.32
2018-03-19T18:06:57.537Z,1.31
2018-03-19T18:09:26.800Z,1.31
2018-03-19T18:11:56.511Z,1.29
2018-03-19T18:14:25.768Z,1.28
2018-03-19T18:16:55.021Z,1.27
2018-03-19T18:19:24.519Z,1.26
2018-03-19T18:21:53.675Z,1.23
2018-03-19T18:24:23.756Z,1.23
2018-03-19T18:26:52.974Z,1.21
2018-03-19T18:29:22.229Z,1.19
2018-03-19T18:31:53.360Z,1.18
2018-03-19T18:34:23.071Z,1.15
2018-03-19T18:36:52.294Z,1.15
2018-03-19T18:39:21.646Z,1.13
2018-03-19T18:41:50.895Z,1.13
2018-03-19T18:44:19.998Z,1.12
2018-03-19T18:46:49.300Z,1.11
2018-03-19T18:49:18.772Z,1.11
2018-03-19T18:51:48.017Z,1.11
2018-03-19T18:54:17.479Z,1.10
2018-03-19T18:56:47.477Z,1.11
2018-03-19T18:59:16.676Z,1.10
2018-03-19T19:01:46.089Z,1.11
2018-03-19T19:04:15.455Z,1.11
2018-03-19T19:06:44.796Z,1.12
2018-03-19T19:09:14.191Z,1.12
2018-03-19T19:11:44.835Z,1.12
2018-03-19T19:14:14.087Z,1.10
2018-03-19T19:16:43.481Z,1.08
2018-03-19T19:19:13.487Z,1.07
2018-03-19T19:21:43.080Z,1.09
2018-03-19T19:24:12.378Z,1.10
2018-03-19T19:26:42.193Z,1.10
2018-03-19T19:29:11.286Z,1.10
2018-03-19T19:31:40.560Z,1.11
2018-03-19T19:34:09.548Z,1.12
2018-03-19T19:36:38.814Z,1.11
2018-03-19T19:39:08.154Z,1.12
2018-03-19T19:41:38.413Z,1.13
2018-03-19T19:44:07.867Z,1.13
2018-03-19T19:46:37.320Z,1.13
2018-03-19T19:49:06.568Z,1.14
2018-03-19T19:51:35.943Z,1.13
2018-03-19T19:54:05.240Z,1.13
2018-03-19T19:56:34.515Z,1.13
2018-03-19T19:59:03.912Z,1.12
2018-03-19T20:01:33.210Z,1.13
2018-03-19T20:04:02.561Z,1.11
2018-03-19T20:06:32.003Z,1.08
2018-03-19T20:09:01.270Z,1.05
2018-03-19T20:11:30.528Z,0.99
2018-03-19T20:14:02.124Z,0.90
2018-03-19T20:16:31.768Z,0.89
2018-03-19T20:19:01.089Z,0.88
2018-03-19T20:21:30.425Z,0.88
2018-03-19T20:23:59.670Z,0.90
2018-03-19T20:26:28.993Z,0.83
2018-03-19T20:28:58.336Z,0.83
2018-03-19T20:31:27.611Z,0.81
2018-03-19T20:33:57.720Z,0.76
2018-03-19T20:36:27.064Z,0.73
2018-03-19T20:38:56.289Z,0.71
2018-03-19T20:41:25.700Z,0.61
2018-03-19T20:43:55.040Z,0.51
2018-03-19T20:46:24.311Z,0.39
2018-03-19T20:48:53.543Z,0.28
2018-03-19T20:51:22.902Z,0.24
2018-03-19T20:53:52.131Z,0.32
2018-03-19T20:56:21.317Z,0.30
2018-03-19T20:58:50.647Z,0.32
2018-03-19T21:01:19.903Z,0.29
2018-03-19T21:03:49.122Z,0.27
2018-03-19T21:06:18.420Z,0.33
2018-03-19T21:08:47.751Z,0.35
2018-03-19T21:11:16.969Z,0.28
2018-03-19T21:13:46.591Z,0.21
2018-03-19T21:16:15.843Z,0.17
2018-03-19T21:18:45.057Z,0.27
2018-03-19T21:21:14.356Z,0.31
2018-03-19T21:23:43.595Z,0.28
2018-03-19T21:26:12.803Z,0.31
2018-03-19T21:28:42.166Z,0.34
2018-03-19T21:31:11.360Z,0.40
2018-03-19T21:33:40.572Z,0.43
2018-03-19T21:36:09.871Z,0.45
2018-03-19T21:38:39.799Z,0.44
2018-03-19T21:41:09.996Z,0.45
2018-03-19T21:43:39.258Z,0.48
2018-03-19T21:46:08.526Z,0.48
2018-03-19T21:48:37.864Z,0.48
2018-03-19T21:51:07.244Z,0.48
2018-03-19T21:53:36.467Z,0.48
2018-03-19T21:56:06.279Z,0.46
2018-03-19T21:58:35.565Z,0.44
2018-03-19T22:01:04.761Z,0.43
2018-03-19T22:03:33.955Z,0.38
2018-03-19T22:06:03.308Z,0.40
2018-03-19T22:08:32.504Z,0.38
2018-03-19T22:11:01.788Z,0.36
2018-03-19T22:13:31.976Z,0.38
2018-03-19T22:16:01.572Z,0.38
2018-03-19T22:18:30.789Z,0.40
2018-03-19T22:21:00.075Z,0.40
2018-03-19T22:23:29.293Z,0.42
2018-03-19T22:25:58.559Z,0.43
2018-03-19T22:28:27.922Z,0.42
2018-03-19T22:31:00.043Z,0.42
2018-03-19T22:33:29.335Z,0.43
2018-03-19T22:35:58.573Z,0.43
2018-03-19T22:38:27.762Z,0.45
2018-03-19T22:40:59.882Z,0.42
2018-03-19T22:43:29.091Z,0.43
2018-03-19T22:45:58.897Z,0.44
2018-03-19T22:48:28.129Z,0.43
2018-03-19T22:50:57.344Z,0.43
2018-03-19T22:53:26.960Z,0.44
2018-03-19T22:55:56.252Z,0.41
2018-03-19T22:58:25.475Z,0.41
2018-03-19T23:00:55.407Z,0.41
2018-03-19T23:03:24.634Z,0.42
2018-03-19T23:05:53.860Z,0.43
2018-03-19T23:08:23.104Z,0.42
2018-03-19T23:10:52.311Z,0.44
2018-03-19T23:13:21.503Z,0.43
2018-03-19T23:15:50.758Z,0.43
2018-03-19T23:18:20.750Z,0.41
2018-03-19T23:20:49.940Z,0.42
2018-03-19T23:23:19.232Z,0.43
2018-03-19T23:25:48.397Z,0.43
2018-03-19T23:28:17.619Z,0.43
2018-03-19T23:30:46.939Z,0.44
2018-03-19T23:33:16.652Z,0.43
2018-03-19T23:35:45.835Z,0.45
2018-03-19T23:38:15.093Z,0.47
2018-03-19T23:40:44.328Z,0.46
2018-03-19T23:43:13.500Z,0.47
2018-03-19T23:45:42.746Z,0.46
2018-03-19T23:48:11.930Z,0.46
2018-03-19T23:50:41.441Z,0.47
2018-03-19T23:53:10.748Z,0.45
2018-03-19T23:55:40.034Z,0.47
2018-03-19T23:58:09.232Z,0.47
